Flora, Indiana
Current Conditions -  °F | °C
As of 4:15 PM on Monday 22 Dec 2014 (Local Time) from KGGP Reporting Station
Haze Haze  
Wind Chill: 31°   Ceiling: 2300
Heat Index: 37°   Visibility: 5mi
Dew Point: 34°   Wind: 9mph
Humidity: 87%   Direction: 110°ESE
Pressure: 29.78"   Gusts: NA
Location:  40.55°N, 86.52°W
Report Text: KGGP 222115Z AUTO 11008KT 5SM BR BKN023 OVC029 03/01 A2978 RMK AO2
Loading
Personal Weather Stations






























Interactive Weather Map New forecast layout! Learn more

10-Day Weather Forecast

Advertisements
Track Severe Weather on mobile